Oberon — SKJF — position and weather

sailwx.info

Track history (hours):
 
Tides and Currents Weather Stations Pressure Air Temp Water Temp Dewpoint Dewpoint Depression Visibility Wind Speed Wind Dir Waves Ship Positions

Oberon

Last reported at 2014-Aug-21 13:17 UTC. Time now 2014-Sep-01 11:42 UTC.
Position N 32°05' W 081°06'.
Warning: this ship's position is 10 days out of date.

Length 232 m; draft 9.5 m.

Type: Cargo ship. MMSI: 266283000.

Date/timePositionNaut miles runAvg speedWind from/ knotsBaromVisibWave heightAir tempDewpointWater temp
2014-Aug-21 13:17N 32°05' W 081°06'0 0.0
2014-Aug-21 12:33N 32°05' W 081°06'0 0.0
2014-Aug-21 11:32N 32°05' W 081°06'0 0.0
2014-Aug-21 10:29N 32°05' W 081°06'0 0.0
2014-Aug-21 09:33N 32°05' W 081°06'1 1.3
2014-Aug-21 08:26N 32°06' W 081°07'6 6.6
2014-Aug-21 07:32N 32°06' W 081°00'26215.1
2014-Aug-20 14:12N 34°11' W 076°25'1117.3
2014-Aug-20 13:33N 34°19' W 076°15'1717.5
2014-Aug-20 12:33N 34°31' W 076°00'5517.5
2014-Aug-20 09:25N 35°09' W 075°12'10317.5
2014-Aug-20 03:30N 36°49' W 075°47'1514.9
2014-Aug-20 02:30N 36°59' W 076°00'1616.7
2014-Aug-20 01:32N 37°14' W 076°08'1818.1
2014-Aug-20 00:32N 37°31' W 076°03'7418.7
2014-Aug-19 20:33N 38°43' W 076°26'1818.2
2014-Aug-19 19:34N 39°01' W 076°23'1212.3
2014-Aug-19 18:33N 39°12' W 076°30'5 4.5
2014-Aug-19 17:32N 39°15' W 076°35'0 0.0
2014-Aug-19 16:32N 39°15' W 076°35'0 0.0
2014-Aug-19 15:32N 39°15' W 076°35'0 0.0
2014-Aug-19 14:32N 39°15' W 076°35'0 0.0
2014-Aug-19 13:32N 39°15' W 076°35'0 0.0
2014-Aug-19 12:32N 39°15' W 076°35'0 0.0
2014-Aug-19 11:32N 39°15' W 076°35'0 0.0
2014-Aug-19 10:32N 39°15' W 076°35'0 0.0
2014-Aug-19 09:32N 39°15' W 076°35'0 0.0
2014-Aug-19 08:32N 39°15' W 076°35'0 0.0
2014-Aug-19 07:32N 39°15' W 076°35'0 0.0
2014-Aug-19 06:32N 39°15' W 076°35'0 0.0
2014-Aug-19 05:32N 39°15' W 076°35'0 0.0
2014-Aug-19 04:32N 39°15' W 076°35'0 0.0
2014-Aug-19 03:32N 39°15' W 076°35'0 0.0
2014-Aug-19 02:32N 39°15' W 076°35'0 0.0
2014-Aug-19 01:32N 39°15' W 076°35'0 0.0
2014-Aug-19 00:32N 39°15' W 076°35'0 0.0
2014-Aug-18 23:32N 39°15' W 076°35'0 0.0
2014-Aug-18 22:32N 39°15' W 076°35'0 0.0
2014-Aug-18 21:32N 39°15' W 076°35'0 0.0
2014-Aug-18 20:32N 39°15' W 076°35'0 0.0
2014-Aug-18 19:32N 39°15' W 076°35'1 0.6
2014-Aug-18 18:29N 39°15' W 076°34'1 1.5
2014-Aug-18 17:33N 39°15' W 076°32'0 0.0
2014-Aug-18 16:31N 39°15' W 076°32'0 0.0
2014-Aug-18 15:31N 39°15' W 076°32'0 0.0
2014-Aug-18 14:31N 39°15' W 076°32'0 0.0
2014-Aug-18 13:31N 39°15' W 076°32'0 0.0
2014-Aug-18 12:31N 39°15' W 076°32'0 0.0
2014-Aug-18 11:32N 39°15' W 076°32'0 0.0
2014-Aug-18 10:31N 39°15' W 076°32'0 0.0
2014-Aug-18 09:29N 39°15' W 076°32'0 0.0
2014-Aug-18 08:31N 39°15' W 076°32'0 0.0
2014-Aug-18 07:31N 39°15' W 076°32'0 0.0
2014-Aug-18 06:31N 39°15' W 076°32'0 0.0
2014-Aug-18 05:31N 39°15' W 076°32'0 0.0
2014-Aug-18 04:32N 39°15' W 076°32'0 0.0
2014-Aug-18 03:31N 39°15' W 076°32'0 0.0
2014-Aug-18 02:31N 39°15' W 076°32'0 0.0
2014-Aug-18 01:31N 39°15' W 076°32'0 0.0
2014-Aug-18 00:28N 39°15' W 076°32'0 0.0
2014-Aug-17 18:31N 39°15' W 076°32'0 0.0
2014-Aug-17 17:31N 39°15' W 076°32'0 0.0
2014-Aug-17 16:32N 39°15' W 076°32'0 0.0
2014-Aug-17 15:31N 39°15' W 076°32'0 0.0
2014-Aug-17 14:32N 39°15' W 076°32'0 0.0
2014-Aug-17 13:32N 39°15' W 076°32'0 0.0
2014-Aug-17 12:31N 39°15' W 076°32'0 0.0
2014-Aug-17 11:31N 39°15' W 076°32'0 0.0
2014-Aug-17 10:31N 39°15' W 076°32'0 0.0
2014-Aug-17 09:33N 39°15' W 076°32'2 2.2
2014-Aug-17 08:33N 39°13' W 076°31'1211.7
2014-Aug-17 07:34N 39°03' W 076°23'1717.5
2014-Aug-17 06:33N 38°45' W 076°26'1817.9
2014-Aug-17 05:34N 38°28' W 076°23'1918.7
2014-Aug-17 04:33N 38°10' W 076°14'2618.0
2014-Aug-17 03:07N 37°45' W 076°11'1116.8
2014-Aug-17 02:26N 37°35' W 076°03'1516.8
2014-Aug-17 01:33N 37°20' W 076°05'1615.4
2014-Aug-17 00:33N 37°04' W 076°06'1414.2
2014-Aug-16 23:33N 36°54' W 075°54'1515.0
2014-Aug-16 22:33N 36°50' W 075°36'17714.6
2014-Aug-16 10:28N 37°48' W 072°05'1515.9
2014-Aug-16 09:32N 37°54' W 071°48'1615.8
2014-Aug-16 08:33N 38°00' W 071°30'1716.1
2014-Aug-16 07:31N 38°05' W 071°10'  
Track history (hours):
 
Tides and Currents Weather Stations Pressure Air Temp Water Temp Dewpoint Dewpoint Depression Visibility Wind Speed Wind Dir Waves Ship Positions

Oberon

Last reported at 2014-Aug-21 13:17 UTC. Time now 2014-Sep-01 11:42 UTC.
Position N 32°05' W 081°06'.
Warning: this ship's position is 10 days out of date.

Length 232 m; draft 9.5 m.

Type: Cargo ship. MMSI: 266283000.

Date/timePositionNaut miles runAvg speedWind from/ knotsBaromVisibWave heightAir tempDewpointWater temp
2014-Aug-21 13:17N 32°05' W 081°06'0 0.0
2014-Aug-21 12:33N 32°05' W 081°06'0 0.0
2014-Aug-21 11:32N 32°05' W 081°06'0 0.0
2014-Aug-21 10:29N 32°05' W 081°06'0 0.0
2014-Aug-21 09:33N 32°05' W 081°06'1 1.3
2014-Aug-21 08:26N 32°06' W 081°07'6 6.6
2014-Aug-21 07:32N 32°06' W 081°00'26215.1
2014-Aug-20 14:12N 34°11' W 076°25'1117.3
2014-Aug-20 13:33N 34°19' W 076°15'1717.5
2014-Aug-20 12:33N 34°31' W 076°00'5517.5
2014-Aug-20 09:25N 35°09' W 075°12'10317.5
2014-Aug-20 03:30N 36°49' W 075°47'1514.9
2014-Aug-20 02:30N 36°59' W 076°00'1616.7
2014-Aug-20 01:32N 37°14' W 076°08'1818.1
2014-Aug-20 00:32N 37°31' W 076°03'7418.7
2014-Aug-19 20:33N 38°43' W 076°26'1818.2
2014-Aug-19 19:34N 39°01' W 076°23'1212.3
2014-Aug-19 18:33N 39°12' W 076°30'5 4.5
2014-Aug-19 17:32N 39°15' W 076°35'0 0.0
2014-Aug-19 16:32N 39°15' W 076°35'0 0.0
2014-Aug-19 15:32N 39°15' W 076°35'0 0.0
2014-Aug-19 14:32N 39°15' W 076°35'0 0.0
2014-Aug-19 13:32N 39°15' W 076°35'0 0.0
2014-Aug-19 12:32N 39°15' W 076°35'0 0.0
2014-Aug-19 11:32N 39°15' W 076°35'0 0.0
2014-Aug-19 10:32N 39°15' W 076°35'0 0.0
2014-Aug-19 09:32N 39°15' W 076°35'0 0.0
2014-Aug-19 08:32N 39°15' W 076°35'0 0.0
2014-Aug-19 07:32N 39°15' W 076°35'0 0.0
2014-Aug-19 06:32N 39°15' W 076°35'0 0.0
2014-Aug-19 05:32N 39°15' W 076°35'0 0.0
2014-Aug-19 04:32N 39°15' W 076°35'0 0.0
2014-Aug-19 03:32N 39°15' W 076°35'0 0.0
2014-Aug-19 02:32N 39°15' W 076°35'0 0.0
2014-Aug-19 01:32N 39°15' W 076°35'0 0.0
2014-Aug-19 00:32N 39°15' W 076°35'0 0.0
2014-Aug-18 23:32N 39°15' W 076°35'0 0.0
2014-Aug-18 22:32N 39°15' W 076°35'0 0.0
2014-Aug-18 21:32N 39°15' W 076°35'0 0.0
2014-Aug-18 20:32N 39°15' W 076°35'0 0.0
2014-Aug-18 19:32N 39°15' W 076°35'1 0.6
2014-Aug-18 18:29N 39°15' W 076°34'1 1.5
2014-Aug-18 17:33N 39°15' W 076°32'0 0.0
2014-Aug-18 16:31N 39°15' W 076°32'0 0.0
2014-Aug-18 15:31N 39°15' W 076°32'0 0.0
2014-Aug-18 14:31N 39°15' W 076°32'0 0.0
2014-Aug-18 13:31N 39°15' W 076°32'0 0.0
2014-Aug-18 12:31N 39°15' W 076°32'0 0.0
2014-Aug-18 11:32N 39°15' W 076°32'0 0.0
2014-Aug-18 10:31N 39°15' W 076°32'0 0.0
2014-Aug-18 09:29N 39°15' W 076°32'0 0.0
2014-Aug-18 08:31N 39°15' W 076°32'0 0.0
2014-Aug-18 07:31N 39°15' W 076°32'0 0.0
2014-Aug-18 06:31N 39°15' W 076°32'0 0.0
2014-Aug-18 05:31N 39°15' W 076°32'0 0.0
2014-Aug-18 04:32N 39°15' W 076°32'0 0.0
2014-Aug-18 03:31N 39°15' W 076°32'0 0.0
2014-Aug-18 02:31N 39°15' W 076°32'0 0.0
2014-Aug-18 01:31N 39°15' W 076°32'0 0.0
2014-Aug-18 00:28N 39°15' W 076°32'0 0.0
2014-Aug-17 18:31N 39°15' W 076°32'0 0.0
2014-Aug-17 17:31N 39°15' W 076°32'0 0.0
2014-Aug-17 16:32N 39°15' W 076°32'0 0.0
2014-Aug-17 15:31N 39°15' W 076°32'0 0.0
2014-Aug-17 14:32N 39°15' W 076°32'0 0.0
2014-Aug-17 13:32N 39°15' W 076°32'0 0.0
2014-Aug-17 12:31N 39°15' W 076°32'0 0.0
2014-Aug-17 11:31N 39°15' W 076°32'0 0.0
2014-Aug-17 10:31N 39°15' W 076°32'0 0.0
2014-Aug-17 09:33N 39°15' W 076°32'2 2.2
2014-Aug-17 08:33N 39°13' W 076°31'1211.7
2014-Aug-17 07:34N 39°03' W 076°23'1717.5
2014-Aug-17 06:33N 38°45' W 076°26'1817.9
2014-Aug-17 05:34N 38°28' W 076°23'1918.7
2014-Aug-17 04:33N 38°10' W 076°14'2618.0
2014-Aug-17 03:07N 37°45' W 076°11'1116.8
2014-Aug-17 02:26N 37°35' W 076°03'1516.8
2014-Aug-17 01:33N 37°20' W 076°05'1615.4
2014-Aug-17 00:33N 37°04' W 076°06'1414.2
2014-Aug-16 23:33N 36°54' W 075°54'1515.0
2014-Aug-16 22:33N 36°50' W 075°36'17714.6
2014-Aug-16 10:28N 37°48' W 072°05'1515.9
2014-Aug-16 09:32N 37°54' W 071°48'1615.8
2014-Aug-16 08:33N 38°00' W 071°30'1716.1
2014-Aug-16 07:31N 38°05' W 071°10'  

Dump ship's entire track history